createdAt,value
2023-05-20T00:00:24.632Z,35.03
2023-05-20T00:01:24.700Z,35.02
2023-05-20T00:02:24.802Z,34.97
2023-05-20T00:03:25.095Z,35.07
2023-05-20T00:04:24.857Z,35.12
2023-05-20T00:05:24.892Z,34.99
2023-05-20T00:06:24.914Z,34.94
2023-05-20T00:07:24.939Z,35.05
2023-05-20T00:08:24.985Z,34.98
2023-05-20T00:09:25.064Z,34.97
2023-05-20T00:10:25.081Z,35.07
2023-05-20T00:11:25.126Z,34.98
2023-05-20T00:12:25.186Z,35.05
2023-05-20T00:13:25.206Z,34.87
2023-05-20T00:14:25.257Z,35.07
2023-05-20T00:15:25.318Z,35.01
2023-05-20T00:16:25.382Z,34.98
2023-05-20T00:17:25.369Z,34.96
2023-05-20T00:18:25.429Z,34.99
2023-05-20T00:19:25.560Z,35.02
2023-05-20T00:20:25.487Z,34.97
2023-05-20T00:21:25.522Z,34.87
2023-05-20T00:22:25.605Z,34.97
2023-05-20T00:23:25.633Z,34.97
2023-05-20T00:24:25.689Z,35.06
2023-05-20T00:25:25.727Z,35.02
2023-05-20T00:26:25.768Z,35.07
2023-05-20T00:27:25.828Z,34.99
2023-05-20T00:28:25.858Z,35.08
2023-05-20T00:29:25.895Z,34.99
2023-05-20T00:30:25.967Z,35.00
2023-05-20T00:31:26.073Z,35.00
2023-05-20T00:32:26.135Z,35.00
2023-05-20T00:33:26.067Z,34.99
2023-05-20T00:34:26.129Z,34.91
2023-05-20T00:35:26.168Z,35.08
2023-05-20T00:36:26.208Z,34.97
2023-05-20T00:37:26.263Z,35.03
2023-05-20T00:38:26.299Z,35.01
2023-05-20T00:39:26.351Z,34.96
2023-05-20T00:40:26.405Z,34.97
2023-05-20T00:41:26.432Z,35.02
2023-05-20T00:42:26.458Z,34.72
2023-05-20T00:43:26.536Z,34.89
2023-05-20T00:44:26.548Z,34.95
2023-05-20T00:45:26.628Z,35.00
2023-05-20T00:46:26.762Z,34.97
2023-05-20T00:47:26.724Z,34.98
2023-05-20T00:48:26.718Z,35.05
2023-05-20T00:49:26.784Z,35.06
2023-05-20T00:50:26.824Z,35.02
2023-05-20T00:51:26.874Z,34.94
2023-05-20T00:52:26.911Z,35.00
2023-05-20T00:53:26.985Z,35.02
2023-05-20T00:54:26.983Z,34.97
2023-05-20T00:55:27.045Z,34.98
2023-05-20T00:56:27.102Z,35.01
2023-05-20T00:57:27.142Z,35.03
2023-05-20T00:58:27.159Z,34.95
2023-05-20T00:59:27.218Z,34.98
2023-05-20T01:00:27.280Z,35.01
2023-05-20T01:01:27.352Z,35.00
2023-05-20T01:02:27.485Z,35.04
2023-05-20T01:03:27.651Z,35.04
2023-05-20T01:04:27.453Z,34.99
2023-05-20T01:05:27.501Z,34.99
2023-05-20T01:06:27.533Z,35.05
2023-05-20T01:07:27.588Z,34.98
2023-05-20T01:08:27.624Z,35.02
2023-05-20T01:09:27.676Z,34.95
2023-05-20T01:10:27.725Z,34.97
2023-05-20T01:11:27.756Z,35.04
2023-05-20T01:12:27.810Z,35.01
2023-05-20T01:13:27.840Z,35.05
2023-05-20T01:14:27.885Z,35.08
2023-05-20T01:15:27.933Z,35.06
2023-05-20T01:16:28.000Z,34.94
2023-05-20T01:17:28.053Z,35.03
2023-05-20T01:18:28.070Z,34.97
2023-05-20T01:19:28.252Z,34.99
2023-05-20T01:20:28.169Z,34.94
2023-05-20T01:21:28.194Z,34.94
2023-05-20T01:22:28.266Z,34.95
2023-05-20T01:23:28.265Z,35.03
2023-05-20T01:24:28.345Z,35.02
2023-05-20T01:25:28.369Z,34.91
2023-05-20T01:26:28.439Z,35.00
2023-05-20T01:27:28.483Z,34.95
2023-05-20T01:28:28.525Z,34.92
2023-05-20T01:29:28.605Z,34.93
2023-05-20T01:30:28.623Z,34.95
2023-05-20T01:31:28.721Z,34.97
2023-05-20T01:32:28.746Z,35.03
2023-05-20T01:33:28.759Z,35.00
2023-05-20T01:34:28.788Z,34.96
2023-05-20T01:35:28.845Z,34.92
2023-05-20T01:36:28.904Z,34.95
2023-05-20T01:37:28.950Z,34.91
2023-05-20T01:38:28.951Z,34.94
2023-05-20T01:39:29.031Z,34.93
2023-05-20T01:40:29.124Z,34.93
2023-05-20T01:41:29.107Z,34.85
2023-05-20T01:42:29.171Z,34.86
2023-05-20T01:43:29.195Z,34.92
2023-05-20T01:44:29.269Z,34.85
2023-05-20T01:45:29.267Z,34.91
2023-05-20T01:46:29.458Z,34.91
2023-05-20T01:47:29.384Z,34.89
2023-05-20T01:48:29.410Z,34.93
2023-05-20T01:49:29.481Z,34.94
2023-05-20T01:50:29.501Z,34.89
2023-05-20T01:51:29.527Z,34.92
2023-05-20T01:52:29.603Z,34.90
2023-05-20T01:53:29.630Z,34.93
2023-05-20T01:54:29.668Z,34.89
2023-05-20T01:55:29.686Z,34.89
2023-05-20T01:56:29.752Z,34.65
2023-05-20T01:57:29.813Z,34.77
2023-05-20T01:58:29.859Z,34.81
2023-05-20T01:59:29.911Z,34.87
2023-05-20T02:00:29.928Z,34.93
2023-05-20T02:01:30.087Z,34.92
2023-05-20T02:02:30.122Z,34.92
2023-05-20T02:03:30.086Z,34.89
2023-05-20T02:04:30.115Z,34.92
2023-05-20T02:05:30.186Z,34.87
2023-05-20T02:06:30.162Z,34.89
2023-05-20T02:07:30.228Z,34.89
2023-05-20T02:08:30.280Z,34.85
2023-05-20T02:09:30.309Z,34.89
2023-05-20T02:10:30.372Z,34.92
2023-05-20T02:11:30.426Z,34.93
2023-05-20T02:12:30.471Z,34.95
2023-05-20T02:13:30.490Z,34.90
2023-05-20T02:14:30.588Z,34.80
2023-05-20T02:15:30.582Z,34.92
2023-05-20T02:16:30.666Z,34.84
2023-05-20T02:17:30.727Z,34.95
2023-05-20T02:18:30.764Z,34.94
2023-05-20T02:19:30.910Z,34.97
2023-05-20T02:20:30.846Z,34.96
2023-05-20T02:21:30.890Z,35.00
2023-05-20T02:22:30.931Z,34.93
2023-05-20T02:23:31.002Z,34.93
2023-05-20T02:24:31.016Z,34.91
2023-05-20T02:25:31.164Z,35.02
2023-05-20T02:26:31.116Z,34.92
2023-05-20T02:27:31.178Z,34.98
2023-05-20T02:28:31.255Z,35.01
2023-05-20T02:29:31.310Z,35.03
2023-05-20T02:30:31.356Z,34.98
2023-05-20T02:31:31.403Z,35.07
2023-05-20T02:32:31.434Z,35.04
2023-05-20T02:33:31.519Z,34.97
2023-05-20T02:34:31.674Z,35.01
2023-05-20T02:35:31.790Z,35.04
2023-05-20T02:36:31.620Z,35.07
2023-05-20T02:37:31.689Z,35.05
2023-05-20T02:38:31.739Z,35.00
2023-05-20T02:39:31.763Z,35.00
2023-05-20T02:40:31.840Z,34.94
2023-05-20T02:41:31.888Z,35.00
2023-05-20T02:42:31.930Z,35.01
2023-05-20T02:43:31.968Z,34.99
2023-05-20T02:44:32.002Z,35.02
2023-05-20T02:45:32.064Z,34.94
2023-05-20T02:46:32.165Z,35.04
2023-05-20T02:47:32.180Z,35.04
2023-05-20T02:48:32.199Z,35.01
2023-05-20T02:49:32.255Z,35.05
2023-05-20T02:50:32.312Z,34.97
2023-05-20T02:51:32.329Z,34.97
2023-05-20T02:52:32.390Z,34.95
2023-05-20T02:53:32.448Z,35.00
2023-05-20T02:54:32.496Z,35.01
2023-05-20T02:55:32.659Z,35.03
2023-05-20T02:56:32.645Z,34.99
2023-05-20T02:57:32.653Z,35.03
2023-05-20T02:58:32.691Z,34.84
2023-05-20T02:59:32.775Z,34.95
2023-05-20T03:00:32.811Z,35.07
2023-05-20T03:01:32.910Z,35.05
2023-05-20T03:02:33.000Z,35.03
2023-05-20T03:03:33.526Z,35.05
2023-05-20T03:04:33.010Z,35.10
2023-05-20T03:05:33.305Z,35.09
2023-05-20T03:06:33.124Z,35.07
2023-05-20T03:07:33.161Z,35.10
2023-05-20T03:08:33.209Z,35.13
2023-05-20T03:09:33.246Z,35.06
2023-05-20T03:10:33.281Z,35.11
2023-05-20T03:11:33.380Z,35.12
2023-05-20T03:12:33.404Z,35.13
2023-05-20T03:13:33.461Z,35.04
2023-05-20T03:14:33.518Z,35.09
2023-05-20T03:15:33.776Z,35.07
2023-05-20T03:16:33.644Z,35.05
2023-05-20T03:17:33.688Z,35.06
2023-05-20T03:18:33.708Z,35.04
2023-05-20T03:19:33.731Z,34.99
2023-05-20T03:20:33.792Z,35.08
2023-05-20T03:21:33.850Z,35.12
2023-05-20T03:22:33.928Z,35.02
2023-05-20T03:23:33.946Z,34.97
2023-05-20T03:24:34.000Z,35.10
2023-05-20T03:25:34.296Z,35.08
2023-05-20T03:26:34.099Z,35.07
2023-05-20T03:27:34.145Z,35.07
2023-05-20T03:28:34.208Z,35.08
2023-05-20T03:29:34.247Z,35.09
2023-05-20T03:30:34.318Z,35.11
2023-05-20T03:31:34.434Z,35.08
2023-05-20T03:32:34.474Z,35.09
2023-05-20T03:33:34.436Z,35.07
2023-05-20T03:34:34.483Z,35.07
2023-05-20T03:35:34.822Z,35.10
2023-05-20T03:36:34.595Z,35.12
2023-05-20T03:37:34.664Z,35.01
2023-05-20T03:38:34.706Z,35.04
2023-05-20T03:39:34.775Z,34.97
2023-05-20T03:40:34.834Z,35.11
2023-05-20T03:41:34.872Z,35.13
2023-05-20T03:42:34.906Z,35.03
2023-05-20T03:43:34.937Z,35.08
2023-05-20T03:44:35.026Z,35.11
2023-05-20T03:45:35.335Z,34.97
2023-05-20T03:46:35.175Z,35.10
2023-05-20T03:47:35.184Z,35.10
2023-05-20T03:48:35.257Z,35.04
2023-05-20T03:49:35.303Z,35.09
2023-05-20T03:50:35.458Z,35.09
2023-05-20T03:51:35.427Z,35.06
2023-05-20T03:52:35.521Z,35.09
2023-05-20T03:53:35.575Z,35.05
2023-05-20T03:54:35.620Z,35.08
2023-05-20T03:55:36.021Z,35.09
2023-05-20T03:56:35.740Z,35.00
2023-05-20T03:57:35.781Z,34.99
2023-05-20T03:58:35.830Z,35.01
2023-05-20T03:59:35.902Z,35.02
2023-05-20T04:00:35.963Z,35.08
2023-05-20T04:01:36.048Z,35.06
2023-05-20T04:02:36.087Z,35.05
2023-05-20T04:03:36.208Z,35.08
2023-05-20T04:04:36.173Z,35.07
2023-05-20T04:05:36.381Z,35.10
2023-05-20T04:06:36.315Z,35.06
2023-05-20T04:07:36.343Z,35.03
2023-05-20T04:08:36.403Z,35.00
2023-05-20T04:09:36.480Z,35.00
2023-05-20T04:10:36.516Z,35.02
2023-05-20T04:11:36.564Z,35.05
2023-05-20T04:12:36.610Z,35.05
2023-05-20T04:13:36.659Z,35.05
2023-05-20T04:14:36.733Z,35.05
2023-05-20T04:15:36.819Z,35.03
2023-05-20T04:16:36.891Z,35.01
2023-05-20T04:17:36.929Z,35.00
2023-05-20T04:18:36.925Z,35.01
2023-05-20T04:19:36.996Z,35.01
2023-05-20T04:20:37.069Z,35.01
2023-05-20T04:21:37.125Z,35.01
2023-05-20T04:22:37.152Z,34.95
2023-05-20T04:23:37.233Z,35.02
2023-05-20T04:24:37.260Z,35.02
2023-05-20T04:25:37.487Z,34.95
2023-05-20T04:26:37.356Z,34.89
2023-05-20T04:27:37.411Z,35.01
2023-05-20T04:28:37.452Z,34.96
2023-05-20T04:29:37.523Z,34.98
2023-05-20T04:30:37.580Z,34.95
2023-05-20T04:31:37.718Z,34.94
2023-05-20T04:32:37.746Z,34.97
2023-05-20T04:33:37.685Z,34.95
2023-05-20T04:34:37.774Z,34.98
2023-05-20T04:35:37.792Z,35.01
2023-05-20T04:36:37.822Z,34.91
2023-05-20T04:37:37.867Z,35.01
2023-05-20T04:38:37.894Z,34.91
2023-05-20T04:39:37.966Z,34.99
2023-05-20T04:40:38.020Z,34.98
2023-05-20T04:41:38.032Z,34.95
2023-05-20T04:42:38.117Z,35.00
2023-05-20T04:43:38.133Z,34.93
2023-05-20T04:44:38.180Z,35.03
2023-05-20T04:45:38.241Z,34.98
2023-05-20T04:46:38.317Z,34.96
2023-05-20T04:47:38.459Z,35.04
2023-05-20T04:48:38.341Z,35.03
2023-05-20T04:49:38.381Z,35.04
2023-05-20T04:50:38.441Z,35.01
2023-05-20T04:51:38.480Z,34.95
2023-05-20T04:52:38.512Z,34.97
2023-05-20T04:53:38.577Z,34.94
2023-05-20T04:54:38.599Z,34.94
2023-05-20T04:55:38.633Z,34.99
2023-05-20T04:56:38.662Z,34.92
2023-05-20T04:57:38.729Z,34.94
2023-05-20T04:58:38.766Z,34.94
2023-05-20T04:59:38.822Z,34.89
2023-05-20T05:00:38.879Z,34.89
2023-05-20T05:01:38.942Z,34.87
2023-05-20T05:02:39.047Z,34.91
2023-05-20T05:03:38.978Z,34.88
2023-05-20T05:04:39.026Z,34.94
2023-05-20T05:05:39.038Z,34.94
2023-05-20T05:06:39.078Z,34.89
2023-05-20T05:07:39.165Z,34.93
2023-05-20T05:08:39.177Z,34.92
2023-05-20T05:09:39.243Z,34.91
2023-05-20T05:10:39.292Z,34.88
2023-05-20T05:11:39.309Z,34.86
2023-05-20T05:12:39.362Z,34.87
2023-05-20T05:13:39.459Z,34.88
2023-05-20T05:14:39.428Z,34.84
2023-05-20T05:15:39.518Z,34.89
2023-05-20T05:16:39.509Z,34.87
2023-05-20T05:17:39.618Z,34.82
2023-05-20T05:18:39.662Z,34.82
2023-05-20T05:19:39.667Z,34.87
2023-05-20T05:20:39.725Z,34.87
2023-05-20T05:21:39.755Z,34.88
2023-05-20T05:22:39.799Z,34.82
2023-05-20T05:23:39.807Z,34.77
2023-05-20T05:24:39.855Z,34.81
2023-05-20T05:25:39.906Z,34.80
2023-05-20T05:26:39.936Z,34.82
2023-05-20T05:27:39.956Z,34.85
2023-05-20T05:28:39.994Z,34.82
2023-05-20T05:29:40.051Z,34.85
2023-05-20T05:30:40.069Z,34.79
2023-05-20T05:31:40.117Z,34.74
2023-05-20T05:32:40.204Z,34.84
2023-05-20T05:33:40.227Z,34.76
2023-05-20T05:34:40.265Z,34.76
2023-05-20T05:35:40.288Z,34.88
2023-05-20T05:36:40.369Z,34.51
2023-05-20T05:37:40.409Z,34.72
2023-05-20T05:38:40.436Z,34.73
2023-05-20T05:39:40.474Z,34.79
2023-05-20T05:40:40.518Z,34.80
2023-05-20T05:41:40.554Z,34.87
2023-05-20T05:42:40.629Z,34.80
2023-05-20T05:43:40.640Z,34.82
2023-05-20T05:44:40.695Z,34.81
2023-05-20T05:45:40.765Z,34.86
2023-05-20T05:46:40.777Z,34.77
2023-05-20T05:47:40.869Z,34.80
2023-05-20T05:48:40.833Z,34.74
2023-05-20T05:49:40.881Z,34.75
2023-05-20T05:50:41.042Z,34.76
2023-05-20T05:51:40.977Z,34.75
2023-05-20T05:52:41.030Z,34.86
2023-05-20T05:53:41.078Z,34.77
2023-05-20T05:54:41.109Z,34.87
2023-05-20T05:55:41.157Z,34.85
2023-05-20T05:56:41.182Z,34.42
2023-05-20T05:57:41.249Z,34.55
2023-05-20T05:58:41.294Z,34.83
2023-05-20T05:59:41.323Z,34.89
2023-05-20T06:00:41.434Z,34.96
2023-05-20T06:01:41.432Z,34.88
2023-05-20T06:02:41.632Z,34.63
2023-05-20T06:03:41.560Z,35.00
2023-05-20T06:04:41.621Z,34.99
2023-05-20T06:05:41.593Z,34.57
2023-05-20T06:06:41.633Z,34.93
2023-05-20T06:07:41.699Z,35.04
2023-05-20T06:08:41.740Z,34.76
2023-05-20T06:09:41.762Z,34.84
2023-05-20T06:10:41.818Z,34.90
2023-05-20T06:11:41.834Z,34.66
2023-05-20T06:12:41.901Z,34.88
2023-05-20T06:13:41.903Z,34.95
2023-05-20T06:14:42.002Z,34.89
2023-05-20T06:15:41.996Z,34.86
2023-05-20T06:16:42.078Z,34.90
2023-05-20T06:17:42.140Z,34.94
2023-05-20T06:18:42.181Z,34.91
2023-05-20T06:19:42.255Z,35.02
2023-05-20T06:20:42.245Z,34.92
2023-05-20T06:21:42.299Z,34.90
2023-05-20T06:22:42.333Z,34.98
2023-05-20T06:23:42.375Z,34.92
2023-05-20T06:24:42.424Z,34.94
2023-05-20T06:25:42.467Z,34.77
2023-05-20T06:26:42.491Z,34.94
2023-05-20T06:27:42.572Z,34.94
2023-05-20T06:28:42.594Z,34.91
2023-05-20T06:29:43.839Z,34.99
2023-05-20T06:30:42.728Z,34.94
2023-05-20T06:31:42.722Z,35.00
2023-05-20T06:32:42.791Z,34.98
2023-05-20T06:33:42.835Z,35.02
2023-05-20T06:34:42.825Z,34.96
2023-05-20T06:35:42.922Z,34.90
2023-05-20T06:36:42.946Z,34.98
2023-05-20T06:37:43.021Z,35.01
2023-05-20T06:38:43.032Z,34.91
2023-05-20T06:39:43.038Z,34.90
2023-05-20T06:40:43.119Z,34.92
2023-05-20T06:41:43.148Z,34.92
2023-05-20T06:42:43.153Z,34.86
2023-05-20T06:43:43.281Z,34.78
2023-05-20T06:44:43.247Z,34.88
2023-05-20T06:45:43.251Z,34.84
2023-05-20T06:46:43.333Z,35.00
2023-05-20T06:47:43.390Z,34.65
2023-05-20T06:48:43.375Z,34.94
2023-05-20T06:49:45.063Z,34.87
2023-05-20T06:50:43.386Z,34.79
2023-05-20T06:51:43.374Z,34.82
2023-05-20T06:52:43.399Z,34.84
2023-05-20T06:53:43.373Z,34.50
2023-05-20T06:54:43.378Z,34.10
2023-05-20T06:55:43.407Z,34.54
2023-05-20T06:56:43.371Z,34.74
2023-05-20T06:57:43.333Z,34.41
2023-05-20T06:58:43.356Z,34.40
2023-05-20T06:59:43.354Z,34.58
2023-05-20T07:00:43.345Z,34.22
2023-05-20T07:01:43.368Z,34.44
2023-05-20T07:02:43.378Z,34.63
2023-05-20T07:03:43.362Z,34.45
2023-05-20T07:04:43.319Z,34.53
2023-05-20T07:05:43.311Z,34.63
2023-05-20T07:06:43.321Z,34.49
2023-05-20T07:07:43.303Z,34.84
2023-05-20T07:08:43.286Z,34.70
2023-05-20T07:09:43.370Z,34.89
2023-05-20T07:10:43.258Z,34.83
2023-05-20T07:11:43.299Z,34.74
2023-05-20T07:12:43.261Z,34.92
2023-05-20T07:13:43.289Z,34.99
2023-05-20T07:14:43.251Z,34.27
2023-05-20T07:15:43.307Z,34.68
2023-05-20T07:16:43.260Z,35.01
2023-05-20T07:17:43.297Z,34.84
2023-05-20T07:18:43.314Z,35.03
2023-05-20T07:19:43.222Z,34.69
2023-05-20T07:20:43.195Z,34.82
2023-05-20T07:21:43.193Z,35.21
2023-05-20T07:22:43.192Z,34.79
2023-05-20T07:23:43.188Z,35.17
2023-05-20T07:24:43.170Z,34.71
2023-05-20T07:25:43.184Z,34.79
2023-05-20T07:26:43.199Z,34.93
2023-05-20T07:27:43.141Z,33.75
2023-05-20T07:28:43.146Z,34.36
2023-05-20T07:29:43.140Z,34.45
2023-05-20T07:30:43.121Z,34.49
2023-05-20T07:31:43.176Z,34.21
2023-05-20T07:32:43.160Z,34.54
2023-05-20T07:33:43.110Z,34.79
2023-05-20T07:34:43.087Z,34.79
2023-05-20T07:35:43.109Z,34.85
2023-05-20T07:36:43.120Z,34.49
2023-05-20T07:37:43.076Z,34.65
2023-05-20T07:38:49.984Z,34.89
2023-05-20T07:39:44.108Z,34.94
2023-05-20T07:40:43.105Z,35.09
2023-05-20T07:41:43.074Z,35.02
2023-05-20T07:42:43.064Z,34.90
2023-05-20T07:43:43.071Z,34.94
2023-05-20T07:44:43.045Z,35.06
2023-05-20T07:45:43.059Z,34.97
2023-05-20T07:46:43.168Z,34.74
2023-05-20T07:47:43.085Z,34.99
2023-05-20T07:48:43.051Z,34.85
2023-05-20T07:49:43.035Z,34.93
2023-05-20T07:50:43.012Z,34.89
2023-05-20T07:51:43.048Z,34.82
2023-05-20T07:52:55.422Z,34.68
2023-05-20T07:53:44.001Z,34.80
2023-05-20T07:54:43.012Z,34.56
2023-05-20T07:55:42.997Z,34.55
2023-05-20T07:56:42.990Z,34.62
2023-05-20T07:57:44.706Z,34.80
2023-05-20T07:58:42.953Z,34.68
2023-05-20T07:59:42.976Z,34.79
2023-05-20T08:00:42.932Z,34.74
2023-05-20T08:01:42.967Z,34.72
2023-05-20T08:02:43.125Z,34.68
2023-05-20T08:03:43.144Z,34.71
2023-05-20T08:04:43.080Z,34.48
2023-05-20T08:05:43.073Z,34.67
2023-05-20T08:06:43.150Z,34.66
2023-05-20T08:07:43.223Z,34.56
2023-05-20T08:08:43.275Z,34.64
2023-05-20T08:09:44.122Z,34.67
2023-05-20T08:10:43.404Z,33.87
2023-05-20T08:11:45.188Z,33.83
2023-05-20T08:12:43.487Z,34.13
2023-05-20T08:13:43.465Z,34.18
2023-05-20T08:14:43.463Z,34.65
2023-05-20T08:15:43.458Z,34.67
2023-05-20T08:16:43.500Z,34.03
2023-05-20T08:17:43.480Z,34.03
2023-05-20T08:18:43.459Z,34.01
2023-05-20T08:19:43.423Z,34.00
2023-05-20T08:20:43.433Z,33.68
2023-05-20T08:21:43.381Z,34.10
2023-05-20T08:22:43.435Z,34.64
2023-05-20T08:23:43.389Z,34.42
2023-05-20T08:24:43.389Z,34.65
2023-05-20T08:25:43.383Z,33.88
2023-05-20T08:26:43.349Z,34.48
2023-05-20T08:27:43.378Z,33.98
2023-05-20T08:28:43.383Z,33.40
2023-05-20T08:29:43.339Z,33.89
2023-05-20T08:30:43.344Z,34.46
2023-05-20T08:31:43.375Z,34.60
2023-05-20T08:32:43.379Z,34.24
2023-05-20T08:33:43.308Z,34.22
2023-05-20T08:34:43.301Z,34.46
2023-05-20T08:35:43.322Z,34.50
2023-05-20T08:36:43.283Z,34.28
2023-05-20T08:37:43.303Z,34.26
2023-05-20T08:38:43.279Z,34.33
2023-05-20T08:39:43.257Z,34.07
2023-05-20T08:40:43.277Z,33.73
2023-05-20T08:41:43.245Z,34.04
2023-05-20T08:42:43.240Z,34.23
2023-05-20T08:43:43.256Z,34.16
2023-05-20T08:44:43.242Z,34.27
2023-05-20T08:45:43.242Z,34.29
2023-05-20T08:46:43.282Z,34.41
2023-05-20T08:47:43.258Z,34.40
2023-05-20T08:48:43.218Z,34.49
2023-05-20T08:49:43.203Z,34.32
2023-05-20T08:50:43.235Z,33.85
2023-05-20T08:51:43.195Z,33.75
2023-05-20T08:52:43.171Z,34.40
2023-05-20T08:53:43.180Z,34.39
2023-05-20T08:54:43.180Z,34.52
2023-05-20T08:55:43.184Z,34.54
2023-05-20T08:56:43.153Z,34.48
2023-05-20T08:57:43.196Z,34.42
2023-05-20T08:58:43.219Z,34.26
2023-05-20T08:59:43.231Z,34.24
2023-05-20T09:00:43.245Z,34.40
2023-05-20T09:01:43.327Z,34.19
2023-05-20T09:02:43.363Z,34.43
2023-05-20T09:03:43.323Z,34.34
2023-05-20T09:04:43.408Z,34.44
2023-05-20T09:05:43.371Z,34.52
2023-05-20T09:06:43.409Z,34.48
2023-05-20T09:07:43.432Z,34.57
2023-05-20T09:08:43.419Z,34.57
2023-05-20T09:09:43.449Z,34.62
2023-05-20T09:10:43.501Z,34.54
2023-05-20T09:11:43.525Z,34.56
2023-05-20T09:12:43.548Z,34.35
2023-05-20T09:13:43.551Z,34.45
2023-05-20T09:14:43.589Z,34.18
2023-05-20T09:15:43.593Z,34.09
2023-05-20T09:16:43.783Z,34.15
2023-05-20T09:17:43.678Z,34.31
2023-05-20T09:18:43.762Z,34.29
2023-05-20T09:19:43.692Z,34.10
2023-05-20T09:20:43.733Z,34.27
2023-05-20T09:21:43.752Z,34.33
2023-05-20T09:22:43.783Z,34.31
2023-05-20T09:23:43.813Z,34.28
2023-05-20T09:24:43.807Z,34.25
2023-05-20T09:25:43.808Z,33.95
2023-05-20T09:26:43.828Z,34.08
2023-05-20T09:27:43.873Z,33.97
2023-05-20T09:28:43.875Z,34.19
2023-05-20T09:29:43.885Z,34.29
2023-05-20T09:30:45.907Z,34.17
2023-05-20T09:31:43.935Z,34.02
2023-05-20T09:32:43.917Z,34.03
2023-05-20T09:33:43.953Z,33.94
2023-05-20T09:34:44.058Z,33.82
2023-05-20T09:35:44.163Z,33.95
2023-05-20T09:36:44.270Z,34.14
2023-05-20T09:37:44.354Z,34.16
2023-05-20T09:38:44.329Z,34.10
2023-05-20T09:39:44.341Z,34.14
2023-05-20T09:40:44.364Z,34.06
2023-05-20T09:41:44.320Z,33.96
2023-05-20T09:42:44.326Z,34.28
2023-05-20T09:43:44.376Z,34.20
2023-05-20T09:44:44.411Z,34.10
2023-05-20T09:45:44.454Z,34.06
2023-05-20T09:46:44.460Z,34.33
2023-05-20T09:47:44.445Z,33.87
2023-05-20T09:48:44.395Z,34.01
2023-05-20T09:49:44.387Z,34.22
2023-05-20T09:50:44.441Z,34.04
2023-05-20T09:51:44.529Z,33.89
2023-05-20T09:52:44.629Z,33.44
2023-05-20T09:53:44.723Z,33.74
2023-05-20T09:54:44.726Z,33.87
2023-05-20T09:55:44.689Z,33.82
2023-05-20T09:56:44.694Z,33.77
2023-05-20T09:57:44.699Z,33.78
2023-05-20T09:58:44.703Z,33.79
2023-05-20T09:59:44.713Z,33.93
2023-05-20T10:00:44.756Z,33.76
2023-05-20T10:01:44.796Z,33.85
2023-05-20T10:02:44.866Z,33.85
2023-05-20T10:03:45.018Z,33.84
2023-05-20T10:04:44.832Z,33.78
2023-05-20T10:05:44.880Z,33.86
2023-05-20T10:06:44.872Z,33.80
2023-05-20T10:07:44.926Z,34.01
2023-05-20T10:08:45.659Z,33.98
2023-05-20T10:09:45.071Z,33.77
2023-05-20T10:10:45.040Z,33.61
2023-05-20T10:11:45.038Z,33.77
2023-05-20T10:12:45.078Z,33.92
2023-05-20T10:13:45.131Z,33.62
2023-05-20T10:14:45.056Z,33.51
2023-05-20T10:15:45.167Z,33.51
2023-05-20T10:16:45.213Z,33.55
2023-05-20T10:17:45.357Z,33.52
2023-05-20T10:18:45.388Z,33.25
2023-05-20T10:19:45.376Z,33.25
2023-05-20T10:20:45.354Z,33.37
2023-05-20T10:21:45.356Z,33.34
2023-05-20T10:22:45.342Z,33.40
2023-05-20T10:23:45.331Z,33.29
2023-05-20T10:24:45.359Z,33.27
2023-05-20T10:25:45.377Z,33.25
2023-05-20T10:26:45.363Z,33.27
2023-05-20T10:27:45.384Z,33.19
2023-05-20T10:28:45.370Z,33.12
2023-05-20T10:29:45.403Z,33.08
2023-05-20T10:30:45.413Z,33.04
2023-05-20T10:31:45.483Z,33.09
2023-05-20T10:32:45.593Z,33.02
2023-05-20T10:33:45.689Z,33.00
2023-05-20T10:34:45.668Z,32.46
2023-05-20T10:35:45.698Z,32.65
2023-05-20T10:36:45.720Z,32.68
2023-05-20T10:37:45.805Z,32.80
2023-05-20T10:38:45.878Z,32.53
2023-05-20T10:39:45.924Z,32.60
2023-05-20T10:40:45.980Z,32.67
2023-05-20T10:41:46.027Z,32.71
2023-05-20T10:42:46.101Z,32.76
2023-05-20T10:43:46.197Z,32.74
2023-05-20T10:44:46.236Z,32.59
2023-05-20T10:45:46.310Z,32.56
2023-05-20T10:47:06.621Z,32.82
2023-05-20T10:47:47.383Z,32.80
2023-05-20T10:48:46.416Z,32.87
2023-05-20T10:49:46.339Z,32.74
2023-05-20T10:50:46.313Z,32.49
2023-05-20T10:51:46.337Z,32.68
2023-05-20T10:52:46.306Z,32.65
2023-05-20T10:53:46.321Z,32.56
2023-05-20T10:54:46.720Z,32.78
2023-05-20T10:55:46.281Z,32.62
2023-05-20T10:56:46.393Z,32.48
2023-05-20T10:57:46.434Z,32.14
2023-05-20T10:58:46.496Z,32.17
2023-05-20T10:59:46.552Z,32.46
2023-05-20T11:00:47.062Z,32.25
2023-05-20T11:01:46.641Z,32.02
2023-05-20T11:02:46.779Z,32.11
2023-05-20T11:03:46.853Z,32.24
2023-05-20T11:04:46.820Z,32.18
2023-05-20T11:05:46.869Z,32.09
2023-05-20T11:06:47.034Z,32.10
2023-05-20T11:07:47.029Z,32.16
2023-05-20T11:08:47.073Z,32.21
2023-05-20T11:09:47.147Z,32.39
2023-05-20T11:10:47.213Z,32.26
2023-05-20T11:11:47.259Z,32.11
2023-05-20T11:12:47.367Z,32.13
2023-05-20T11:13:47.367Z,32.01
2023-05-20T11:14:47.432Z,32.04
2023-05-20T11:15:47.510Z,31.97
2023-05-20T11:16:47.586Z,31.95
2023-05-20T11:17:47.651Z,31.91
2023-05-20T11:18:47.722Z,31.89
2023-05-20T11:19:47.737Z,31.86
2023-05-20T11:20:47.790Z,31.93
2023-05-20T11:21:47.946Z,32.03
2023-05-20T11:22:47.901Z,31.87
2023-05-20T11:23:47.972Z,31.78
2023-05-20T11:24:48.054Z,31.68
2023-05-20T11:25:48.134Z,31.61
2023-05-20T11:26:48.204Z,31.25
2023-05-20T11:27:48.235Z,31.18
2023-05-20T11:28:48.225Z,31.14
2023-05-20T11:29:48.267Z,31.08
2023-05-20T11:30:48.373Z,31.02
2023-05-20T11:31:48.376Z,30.98
2023-05-20T11:32:48.465Z,30.96
2023-05-20T11:33:48.492Z,30.96
2023-05-20T11:34:48.545Z,30.58
2023-05-20T11:35:48.551Z,30.63
2023-05-20T11:36:48.565Z,30.67
2023-05-20T11:37:48.604Z,30.66
2023-05-20T11:38:48.625Z,30.77
2023-05-20T11:39:48.685Z,30.75
2023-05-20T11:40:51.219Z,30.77
2023-05-20T11:41:48.712Z,30.80
2023-05-20T11:42:48.709Z,30.54
2023-05-20T11:43:48.692Z,30.12
2023-05-20T11:44:48.688Z,30.19
2023-05-20T11:45:48.815Z,30.49
2023-05-20T11:46:48.655Z,30.44
2023-05-20T11:47:48.785Z,30.27
2023-05-20T11:48:48.663Z,30.05
2023-05-20T11:49:48.662Z,30.04
2023-05-20T11:50:48.649Z,29.72
2023-05-20T11:51:48.612Z,29.90
2023-05-20T11:52:48.631Z,29.94
2023-05-20T11:53:48.609Z,29.89
2023-05-20T11:54:48.636Z,29.93
2023-05-20T11:55:48.607Z,30.06
2023-05-20T11:56:48.626Z,29.96
2023-05-20T11:57:48.627Z,29.69
2023-05-20T11:58:48.580Z,29.67
2023-05-20T11:59:48.597Z,29.69
2023-05-20T12:00:54.737Z,29.50
2023-05-20T12:01:49.579Z,29.69
2023-05-20T12:02:48.635Z,29.87
2023-05-20T12:03:48.891Z,29.78
2023-05-20T12:04:48.591Z,29.55
2023-05-20T12:05:48.517Z,29.41
2023-05-20T12:06:48.542Z,29.59
2023-05-20T12:07:48.561Z,29.62
2023-05-20T12:08:48.512Z,29.52
2023-05-20T12:09:48.516Z,29.58
2023-05-20T12:10:48.548Z,29.58
2023-05-20T12:11:48.527Z,29.55
2023-05-20T12:12:48.601Z,29.59
2023-05-20T12:13:48.671Z,29.60
2023-05-20T12:14:48.749Z,29.67
2023-05-20T12:15:48.946Z,29.66
2023-05-20T12:16:48.909Z,29.71
2023-05-20T12:17:49.028Z,29.66
2023-05-20T12:18:49.102Z,29.15
2023-05-20T12:19:49.123Z,29.24
2023-05-20T12:20:49.230Z,29.20
2023-05-20T12:21:49.242Z,29.08
2023-05-20T12:22:49.257Z,29.08
2023-05-20T12:23:49.236Z,29.11
2023-05-20T12:24:49.231Z,28.91
2023-05-20T12:25:49.240Z,28.87
2023-05-20T12:26:49.252Z,29.28
2023-05-20T12:27:49.251Z,29.15
2023-05-20T12:28:49.250Z,29.34
2023-05-20T12:29:49.225Z,29.27
2023-05-20T12:30:49.260Z,29.08
2023-05-20T12:31:49.331Z,29.04
2023-05-20T12:32:49.312Z,28.29
2023-05-20T12:33:49.384Z,28.49
2023-05-20T12:34:49.468Z,28.56
2023-05-20T12:35:49.472Z,28.61
2023-05-20T12:36:49.478Z,28.92
2023-05-20T12:37:49.479Z,28.87
2023-05-20T12:38:49.475Z,28.94
2023-05-20T12:39:49.502Z,28.61
2023-05-20T12:40:49.545Z,28.60
2023-05-20T12:41:49.663Z,28.66
2023-05-20T12:42:49.639Z,28.75
2023-05-20T12:43:49.619Z,28.91
2023-05-20T12:44:49.650Z,28.84
2023-05-20T12:45:49.643Z,28.82
2023-05-20T12:46:49.645Z,28.68
2023-05-20T12:47:49.751Z,28.50
2023-05-20T12:48:49.712Z,28.50
2023-05-20T12:49:49.687Z,28.76
2023-05-20T12:50:49.692Z,28.51
2023-05-20T12:51:49.681Z,28.87
2023-05-20T12:52:49.695Z,28.85